Time;durP1;ratioP1;P1;durP2;ratioP2;P2;SDS_P1;SDS_P2;PMS_P1;PMS_P2;Temp;Humidity;BMP_temperature;BMP_pressure;BME280_temperature;BME280_humidity;BME280_pressure;Samples;Min_cycle;Max_cycle;Signal;HPM_P1;HPM_P2
2023/05/05 04:29:24;;;;;;;8.57;3.47;;;15.40;65.40;;;;;;4764695;30;20063;-75
2023/05/05 04:31:50;;;;;;;11.77;4.07;;;15.30;65.30;;;;;;4784933;30;20120;-76
2023/05/05 04:34:16;;;;;;;10.90;3.42;;;15.40;65.30;;;;;;4791242;30;20047;-76
2023/05/05 04:36:41;;;;;;;15.70;4.00;;;15.40;65.20;;;;;;4791783;30;20368;-74
2023/05/05 04:39:07;;;;;;;14.00;3.80;;;15.40;65.10;;;;;;4791111;30;20074;-76
2023/05/05 04:41:33;;;;;;;18.67;4.00;;;15.50;65.30;;;;;;4791247;29;20048;-76
2023/05/05 04:43:59;;;;;;;14.93;4.07;;;15.40;65.10;;;;;;4790680;30;20051;-78
2023/05/05 04:46:28;;;;;;;12.48;3.30;;;15.50;65.20;;;;;;4789956;29;20043;-77
2023/05/05 04:48:53;;;;;;;16.25;3.70;;;15.60;65.20;;;;;;4774913;30;20046;-72
2023/05/05 04:51:19;;;;;;;10.90;3.03;;;15.70;65.00;;;;;;4790025;30;20054;-74
2023/05/05 04:53:45;;;;;;;12.90;2.72;;;15.80;65.00;;;;;;4791129;30;20350;-71
2023/05/05 04:56:11;;;;;;;9.48;2.88;;;15.90;65.60;;;;;;4790718;29;20093;-71
2023/05/05 04:58:36;;;;;;;12.23;2.83;;;16.00;65.60;;;;;;4784537;30;20058;-73
2023/05/05 05:01:02;;;;;;;8.57;2.80;;;16.10;65.10;;;;;;4771273;30;20078;-70
2023/05/05 05:03:28;;;;;;;11.27;2.95;;;16.10;65.10;;;;;;4772566;30;20055;-70
2023/05/05 05:05:54;;;;;;;7.05;2.22;;;16.10;65.30;;;;;;4772661;30;20060;-71
2023/05/05 05:08:19;;;;;;;6.47;2.38;;;16.20;65.60;;;;;;4772863;30;20056;-71
2023/05/05 05:10:45;;;;;;;13.52;3.00;;;16.20;65.80;;;;;;4772553;30;20064;-76
2023/05/05 05:13:11;;;;;;;9.65;3.22;;;16.20;66.20;;;;;;4772220;30;20048;-76
2023/05/05 05:15:39;;;;;;;8.57;2.92;;;16.20;66.40;;;;;;4772446;30;20055;-71
2023/05/05 05:18:05;;;;;;;9.90;3.40;;;16.20;66.60;;;;;;4769071;30;20113;-75
2023/05/05 05:20:32;;;;;;;18.80;3.80;;;16.10;65.20;;;;;;4754707;30;20048;-75
2023/05/05 05:23:00;;;;;;;17.98;3.88;;;16.00;66.50;;;;;;4762733;30;20075;-77
2023/05/05 05:25:26;;;;;;;10.30;3.13;;;16.10;66.90;;;;;;4744141;30;20064;-75
2023/05/05 05:27:52;;;;;;;17.35;3.88;;;16.10;67.00;;;;;;4768927;30;20140;-74
2023/05/05 05:30:18;;;;;;;16.20;3.25;;;16.10;67.10;;;;;;4772552;30;20063;-79
2023/05/05 05:32:44;;;;;;;15.55;3.78;;;16.10;67.30;;;;;;4772466;30;20479;-76
2023/05/05 05:35:09;;;;;;;20.23;4.30;;;16.10;67.40;;;;;;4756842;30;20368;-76
2023/05/05 05:37:35;;;;;;;10.85;4.25;;;16.00;66.40;;;;;;4771972;30;20119;-72
2023/05/05 05:40:01;;;;;;;16.98;4.75;;;15.80;65.60;;;;;;4772111;30;20086;-71
2023/05/05 05:42:30;;;;;;;18.35;4.90;;;15.60;65.90;;;;;;4772452;30;20144;-80
2023/05/05 05:44:57;;;;;;;17.40;4.50;;;15.40;66.70;;;;;;4756124;30;20055;-74
2023/05/05 05:47:23;;;;;;;19.70;4.20;;;15.30;68.70;;;;;;4771158;30;20105;-71
2023/05/05 05:49:49;;;;;;;25.15;5.20;;;15.50;69.60;;;;;;4756510;30;20040;-71
2023/05/05 05:52:15;;;;;;;28.55;4.78;;;15.60;69.60;;;;;;4755076;30;20118;-71
2023/05/05 05:54:40;;;;;;;26.58;5.78;;;15.70;69.70;;;;;;4753869;30;20143;-71
2023/05/05 05:57:06;;;;;;;15.27;4.78;;;15.80;69.90;;;;;;4754108;30;20461;-73
2023/05/05 05:59:32;;;;;;;18.00;4.72;;;15.90;70.20;;;;;;4767906;30;20051;-72
2023/05/05 06:01:57;;;;;;;19.95;4.40;;;15.90;70.30;;;;;;4767393;30;20048;-71
2023/05/05 06:04:23;;;;;;;26.77;4.80;;;16.00;70.00;;;;;;4770417;30;20410;-71
2023/05/05 06:06:49;;;;;;;23.05;5.00;;;16.00;69.90;;;;;;4772076;30;20079;-71
2023/05/05 06:09:15;;;;;;;25.67;5.88;;;16.10;70.00;;;;;;4771523;30;20051;-70
2023/05/05 06:11:41;;;;;;;25.10;5.38;;;16.10;70.00;;;;;;4771614;30;20360;-71
2023/05/05 06:14:06;;;;;;;28.70;5.53;;;16.10;70.10;;;;;;4771163;30;20040;-71
2023/05/05 06:16:32;;;;;;;20.98;5.10;;;16.10;70.00;;;;;;4771786;30;20056;-71
2023/05/05 06:18:58;;;;;;;28.67;5.35;;;16.10;68.50;;;;;;4772045;30;20056;-70
2023/05/05 06:21:23;;;;;;;20.58;6.00;;;16.10;69.60;;;;;;4771581;30;20078;-70
2023/05/05 06:23:49;;;;;;;24.52;4.88;;;16.10;70.10;;;;;;4771974;30;20071;-70
2023/05/05 06:26:15;;;;;;;23.52;4.95;;;16.20;70.30;;;;;;4770820;30;20447;-72
2023/05/05 06:28:41;;;;;;;30.40;5.75;;;16.20;70.50;;;;;;4771533;30;20066;-72
2023/05/05 06:31:08;;;;;;;20.50;5.72;;;16.20;70.00;;;;;;4771552;30;20055;-73
2023/05/05 06:33:33;;;;;;;15.02;4.70;;;16.20;70.00;;;;;;4770918;30;20055;-72
2023/05/05 06:35:59;;;;;;;11.95;4.25;;;16.10;68.90;;;;;;4771997;30;20071;-71
2023/05/05 06:38:25;;;;;;;24.85;4.90;;;16.10;67.60;;;;;;4768596;30;20464;-70
2023/05/05 06:40:50;;;;;;;24.63;5.65;;;16.10;67.80;;;;;;4770802;30;20047;-69
2023/05/05 06:43:16;;;;;;;25.10;5.60;;;16.10;68.30;;;;;;4771749;30;20364;-70
2023/05/05 06:45:42;;;;;;;19.92;5.20;;;16.10;68.70;;;;;;4771423;30;20516;-70
2023/05/05 06:48:08;;;;;;;22.00;5.32;;;16.10;69.00;;;;;;4771219;30;20079;-70
2023/05/05 06:50:34;;;;;;;23.52;4.50;;;16.10;68.80;;;;;;4773608;30;20063;-72
2023/05/05 06:53:00;;;;;;;10.25;4.10;;;16.10;69.10;;;;;;4774970;30;20387;-72
2023/05/05 06:55:25;;;;;;;22.73;5.10;;;16.10;69.00;;;;;;4773086;30;20047;-70
2023/05/05 06:57:51;;;;;;;18.70;6.05;;;16.20;68.90;;;;;;4774663;30;20056;-71
2023/05/05 07:00:18;;;;;;;22.77;6.88;;;16.30;68.60;;;;;;4774624;30;20127;-70
2023/05/05 07:02:43;;;;;;;26.38;7.45;;;16.30;68.50;;;;;;4763341;30;20060;-71
2023/05/05 07:05:09;;;;;;;35.15;7.15;;;16.30;68.80;;;;;;4763437;30;20116;-71
2023/05/05 07:07:37;;;;;;;31.30;7.60;;;16.40;68.60;;;;;;4774344;30;20352;-71
2023/05/05 07:10:03;;;;;;;24.40;6.57;;;16.40;68.50;;;;;;4765424;30;20059;-71
2023/05/05 07:12:32;;;;;;;42.03;8.60;;;16.40;68.40;;;;;;4749406;30;20454;-71
2023/05/05 07:14:58;;;;;;;29.73;8.07;;;16.50;68.40;;;;;;4792482;30;20363;-71
2023/05/05 07:17:23;;;;;;;22.63;6.85;;;16.50;68.30;;;;;;4783871;30;20056;-70
2023/05/05 07:19:50;;;;;;;21.00;7.05;;;16.50;68.00;;;;;;4774898;30;20044;-76
2023/05/05 07:22:16;;;;;;;21.08;5.68;;;16.60;67.80;;;;;;4774768;30;20484;-70
2023/05/05 07:24:41;;;;;;;21.67;6.72;;;16.50;67.90;;;;;;4774890;30;20051;-71
2023/05/05 07:27:07;;;;;;;24.60;7.93;;;16.60;67.90;;;;;;4774126;30;20054;-71
2023/05/05 07:29:33;;;;;;;13.43;6.53;;;16.60;68.50;;;;;;4764618;30;20458;-72
2023/05/05 07:31:59;;;;;;;15.93;7.10;;;16.70;68.20;;;;;;4777321;29;20055;-71
2023/05/05 07:34:25;;;;;;;22.73;7.05;;;16.70;67.80;;;;;;4778389;30;20039;-74
2023/05/05 07:36:50;;;;;;;21.50;8.25;;;16.70;67.60;;;;;;4774258;30;20044;-75
2023/05/05 07:39:18;;;;;;;18.60;6.75;;;16.70;67.70;;;;;;4770131;30;20056;-72
2023/05/05 07:41:43;;;;;;;14.18;6.13;;;16.70;67.70;;;;;;4773815;30;20440;-72
2023/05/05 07:44:10;;;;;;;15.10;5.93;;;16.70;67.70;;;;;;4774441;30;20131;-73
2023/05/05 07:46:35;;;;;;;11.57;5.82;;;16.70;67.80;;;;;;4773860;30;20126;-72
2023/05/05 07:49:01;;;;;;;10.98;5.47;;;16.60;67.90;;;;;;4773710;30;20130;-72
2023/05/05 07:51:27;;;;;;;14.00;5.57;;;16.60;67.90;;;;;;4759746;30;20518;-72
2023/05/05 07:53:54;;;;;;;15.52;5.80;;;16.60;67.90;;;;;;4756032;30;20052;-73
2023/05/05 07:56:19;;;;;;;15.27;5.95;;;16.60;67.90;;;;;;4755614;30;20452;-73
2023/05/05 07:58:45;;;;;;;10.52;4.72;;;16.60;67.90;;;;;;4756523;30;20060;-73
2023/05/05 08:01:12;;;;;;;9.52;5.30;;;16.60;68.00;;;;;;4773107;30;20056;-72
2023/05/05 08:03:37;;;;;;;12.70;4.95;;;16.60;68.00;;;;;;4756343;30;20052;-73
2023/05/05 08:06:10;;;;;;;10.75;4.82;;;16.60;67.90;;;;;;4755315;30;20149;-72
2023/05/05 08:08:36;;;;;;;14.50;5.20;;;16.60;68.00;;;;;;4763619;30;20063;-73
2023/05/05 08:11:05;;;;;;;10.40;4.65;;;16.60;68.00;;;;;;4762316;30;20056;-72
2023/05/05 08:13:31;;;;;;;10.20;4.80;;;16.60;68.00;;;;;;4769550;30;20098;-72
2023/05/05 08:15:56;;;;;;;13.48;4.72;;;16.60;67.90;;;;;;4773866;30;20087;-72
2023/05/05 08:18:23;;;;;;;9.30;4.40;;;16.60;68.00;;;;;;4771554;30;20059;-72
2023/05/05 08:20:49;;;;;;;8.80;3.95;;;16.60;68.00;;;;;;4773350;30;20098;-72
2023/05/05 08:23:16;;;;;;;10.05;4.75;;;16.60;68.00;;;;;;4766238;30;20115;-72
2023/05/05 08:25:42;;;;;;;8.98;4.25;;;16.60;68.00;;;;;;4756222;30;20048;-72
2023/05/05 08:28:08;;;;;;;8.27;4.43;;;16.60;67.90;;;;;;4754229;30;20131;-72
2023/05/05 08:30:34;;;;;;;9.60;4.70;;;16.60;67.90;;;;;;4750050;30;20194;-72
2023/05/05 08:33:00;;;;;;;9.18;4.43;;;16.60;67.90;;;;;;4738111;30;20507;-72
2023/05/05 08:35:26;;;;;;;11.40;4.38;;;16.70;67.90;;;;;;4737745;30;20153;-72
2023/05/05 08:37:51;;;;;;;6.00;3.90;;;16.60;67.80;;;;;;4739309;30;20044;-72
2023/05/05 08:40:19;;;;;;;7.13;4.15;;;16.60;67.80;;;;;;4755543;30;20128;-73
2023/05/05 08:42:45;;;;;;;9.18;4.35;;;16.70;67.80;;;;;;4754793;30;20153;-73
2023/05/05 08:45:11;;;;;;;7.25;4.15;;;16.60;67.70;;;;;;4755337;30;20086;-72
2023/05/05 08:47:38;;;;;;;6.10;4.63;;;16.70;67.70;;;;;;4747701;30;20055;-72
2023/05/05 08:50:05;;;;;;;11.10;4.03;;;16.70;67.70;;;;;;4738324;30;20412;-73
2023/05/05 08:52:42;;;;;;;7.75;4.20;;;16.70;67.70;;;;;;4738535;30;20372;-72
2023/05/05 08:55:23;;;;;;;5.85;3.60;;;16.70;67.80;;;;;;4755098;30;20387;-72
2023/05/05 08:57:53;;;;;;;7.57;4.05;;;16.70;67.80;;;;;;4772801;30;20504;-72
2023/05/05 09:00:20;;;;;;;6.53;3.70;;;16.70;67.80;;;;;;4755476;30;20069;-72
2023/05/05 09:02:46;;;;;;;7.40;4.10;;;16.70;67.80;;;;;;4746284;30;20068;-72
2023/05/05 09:05:12;;;;;;;6.72;3.42;;;16.70;67.80;;;;;;4737563;30;20402;-72
2023/05/05 09:07:42;;;;;;;4.60;3.70;;;16.60;67.80;;;;;;4744626;30;20063;-73
2023/05/05 09:10:10;;;;;;;6.63;3.47;;;16.70;67.80;;;;;;4768400;30;20060;-72
2023/05/05 09:12:39;;;;;;;6.57;3.55;;;16.70;67.80;;;;;;4754719;30;20094;-72
2023/05/05 09:15:07;;;;;;;5.40;3.40;;;16.70;67.80;;;;;;4737180;30;20131;-72
2023/05/05 09:17:32;;;;;;;6.47;3.53;;;16.70;67.80;;;;;;4737094;30;20056;-72
2023/05/05 09:20:03;;;;;;;6.20;3.97;;;16.70;67.80;;;;;;4753745;30;20121;-72
2023/05/05 09:22:36;;;;;;;5.28;4.13;;;16.70;67.80;;;;;;4753635;30;20058;-72
2023/05/05 09:25:03;;;;;;;4.75;3.40;;;16.70;67.80;;;;;;4755449;30;20064;-72
2023/05/05 09:27:29;;;;;;;7.88;3.63;;;16.70;67.70;;;;;;4754167;30;20072;-72
2023/05/05 09:29:56;;;;;;;3.95;3.40;;;16.70;67.70;;;;;;4754320;30;20188;-72
2023/05/05 09:32:21;;;;;;;5.18;4.13;;;16.70;67.80;;;;;;4749627;30;20369;-72
2023/05/05 09:34:58;;;;;;;9.45;3.72;;;16.70;67.70;;;;;;4744791;30;20085;-72
2023/05/05 09:37:28;;;;;;;5.22;3.67;;;16.70;67.80;;;;;;4745517;30;20350;-72
2023/05/05 09:39:55;;;;;;;5.63;3.72;;;16.70;67.80;;;;;;4736951;30;20470;-72
2023/05/05 09:42:21;;;;;;;6.40;3.67;;;16.70;67.80;;;;;;4750386;30;20412;-76
2023/05/05 09:44:47;;;;;;;5.70;3.90;;;16.60;67.80;;;;;;4754153;30;20123;-75
2023/05/05 09:47:13;;;;;;;6.72;4.65;;;16.60;67.80;;;;;;4753255;30;20059;-75
2023/05/05 09:49:39;;;;;;;5.22;3.65;;;16.70;68.00;;;;;;4754406;30;20408;-75
2023/05/05 09:52:13;;;;;;;7.45;4.53;;;16.60;68.00;;;;;;4752302;30;20228;-76
2023/05/05 09:54:43;;;;;;;16.98;4.82;;;16.70;68.30;;;;;;4767718;30;20052;-80
2023/05/05 09:57:25;;;;;;;9.55;4.93;;;16.70;68.40;;;;;;4753855;30;20372;-75
2023/05/05 09:59:56;;;;;;;16.85;6.20;;;16.60;68.30;;;;;;4753809;30;20059;-75
2023/05/05 10:03:01;;;;;;;17.58;5.28;;;16.70;68.50;;;;;;4753971;30;20056;-80
2023/05/05 10:05:26;;;;;;;;;;;16.70;68.40;;;;;;4765090;30;20128;-74
2023/05/05 10:07:52;;;;;;;14.90;5.50;;;16.70;67.80;;;;;;4744263;30;20009;-76
2023/05/05 10:10:18;;;;;;;24.10;6.10;;;16.70;68.40;;;;;;4766980;30;20139;-77
2023/05/05 10:12:48;;;;;;;11.30;4.90;;;16.70;68.40;;;;;;4767751;30;20060;-73
2023/05/05 10:15:15;;;;;;;20.80;5.03;;;16.70;68.70;;;;;;4753172;30;20052;-74
2023/05/05 10:17:48;;;;;;;12.85;5.20;;;16.80;68.70;;;;;;4751753;30;20056;-72
2023/05/05 10:20:14;;;;;;;21.47;5.37;;;16.80;68.90;;;;;;4751123;30;20052;-73
2023/05/05 10:22:51;;;;;;;24.75;5.85;;;16.80;68.90;;;;;;4741366;30;20307;-74
2023/05/05 10:25:32;;;;;;;16.35;5.53;;;16.80;69.70;;;;;;4747535;30;20076;-73
2023/05/05 10:28:00;;;;;;;12.88;5.40;;;16.80;69.30;;;;;;4757358;30;20479;-75
2023/05/05 10:30:30;;;;;;;23.25;6.10;;;16.80;69.30;;;;;;4757332;30;20056;-74
2023/05/05 10:33:28;;;;;;;27.17;5.88;;;16.80;69.80;;;;;;4755821;30;20095;-74
2023/05/05 10:35:58;;;;;;;24.25;5.45;;;16.80;70.30;;;;;;4748122;30;20060;-73
2023/05/05 10:38:27;;;;;;;15.20;5.60;;;16.80;70.10;;;;;;4755123;30;20444;-70
2023/05/05 10:40:55;;;;;;;10.00;4.20;;;16.80;69.70;;;;;;4756464;30;20540;-73
2023/05/05 10:43:22;;;;;;;16.25;5.07;;;16.80;69.60;;;;;;4757179;30;20067;-73
2023/05/05 10:45:48;;;;;;;18.08;5.30;;;16.80;69.80;;;;;;4756384;30;20361;-76
2023/05/05 10:48:24;;;;;;;11.00;4.95;;;16.90;69.90;;;;;;4749307;30;20124;-75
2023/05/05 10:50:55;;;;;;;14.70;5.65;;;16.90;69.80;;;;;;4763763;30;20130;-75
2023/05/05 10:53:27;;;;;;;18.17;5.53;;;16.90;69.70;;;;;;4749762;30;20044;-74
2023/05/05 10:56:25;;;;;;;14.82;4.43;;;16.90;69.50;;;;;;4771863;30;20364;-74
2023/05/05 10:58:52;;;;;;;11.10;5.03;;;16.90;70.10;;;;;;4771324;30;20064;-75
2023/05/05 11:01:35;;;;;;;9.95;4.53;;;16.90;69.40;;;;;;4774089;30;20075;-74
2023/05/05 11:04:17;;;;;;;11.98;4.85;;;16.90;69.50;;;;;;4772165;30;20087;-74
2023/05/05 11:07:12;;;;;;;10.38;4.40;;;16.90;69.50;;;;;;4757865;30;20075;-74
2023/05/05 11:09:57;;;;;;;10.30;4.63;;;16.80;69.70;;;;;;4759512;30;20673;-75
2023/05/05 11:12:23;;;;;;;18.33;5.07;;;16.80;69.40;;;;;;4756865;30;20135;-74
2023/05/05 11:15:26;;;;;;;15.98;5.30;;;16.80;69.70;;;;;;4756987;30;20132;-72
2023/05/05 11:17:55;;;;;;;32.92;6.55;;;16.90;69.90;;;;;;4758583;30;20052;-72
2023/05/05 11:20:39;;;;;;;23.23;6.50;;;16.90;70.00;;;;;;4774439;30;20477;-72
2023/05/05 11:23:05;;;;;;;24.75;6.38;;;16.90;69.80;;;;;;4756994;30;20066;-71
2023/05/05 11:25:34;;;;;;;22.25;6.30;;;16.90;69.90;;;;;;4756782;30;20135;-74
2023/05/05 11:28:15;;;;;;;32.47;7.05;;;16.90;70.10;;;;;;4756768;30;20056;-73
2023/05/05 11:30:57;;;;;;;24.15;6.20;;;16.90;70.10;;;;;;4760689;30;20368;-73
2023/05/05 11:33:36;;;;;;;31.30;6.40;;;16.90;70.30;;;;;;4767499;30;20068;-74
2023/05/05 11:36:10;;;;;;;22.52;5.45;;;16.90;70.50;;;;;;4740217;30;20056;-73
2023/05/05 11:38:55;;;;;;;21.38;5.05;;;16.90;70.50;;;;;;4756418;30;20449;-74
2023/05/05 11:41:32;;;;;;;24.02;4.25;;;16.90;70.50;;;;;;4774078;30;20352;-73
2023/05/05 11:44:11;;;;;;;17.15;4.75;;;16.90;70.60;;;;;;4773855;30;20164;-73
2023/05/05 11:46:59;;;;;;;12.50;3.95;;;16.90;70.60;;;;;;4774291;30;20130;-73
2023/05/05 11:49:36;;;;;;;14.77;4.57;;;16.90;70.50;;;;;;4769991;30;20059;-73
2023/05/05 11:52:04;;;;;;;15.57;4.07;;;16.90;70.50;;;;;;4774263;30;20465;-73
2023/05/05 11:54:31;;;;;;;13.95;3.80;;;16.90;70.40;;;;;;4773783;30;20052;-74
2023/05/05 11:57:04;;;;;;;14.65;3.47;;;16.90;70.40;;;;;;4771072;30;20052;-73
2023/05/05 11:59:30;;;;;;;12.65;4.10;;;16.90;70.30;;;;;;4758894;30;20056;-73
2023/05/05 12:01:57;;;;;;;13.25;3.53;;;16.90;70.30;;;;;;4773545;30;20072;-73
2023/05/05 12:04:23;;;;;;;10.48;3.05;;;16.90;70.20;;;;;;4773342;30;20129;-72
2023/05/05 12:06:49;;;;;;;11.35;3.42;;;16.90;70.20;;;;;;4772703;30;20432;-73
2023/05/05 12:09:15;;;;;;;9.38;2.78;;;16.90;70.10;;;;;;4773807;30;20086;-73
2023/05/05 12:11:55;;;;;;;16.10;3.35;;;16.90;70.10;;;;;;4773348;30;20507;-73
2023/05/05 12:14:22;;;;;;;14.23;4.15;;;16.90;70.20;;;;;;4774262;30;20052;-73
2023/05/05 12:17:00;;;;;;;7.32;3.50;;;16.90;70.10;;;;;;4773524;30;20054;-73
2023/05/05 12:19:32;;;;;;;13.55;4.47;;;16.90;70.10;;;;;;4773033;30;20428;-72
2023/05/05 12:21:58;;;;;;;9.48;4.40;;;16.90;70.10;;;;;;4773881;30;20082;-73
2023/05/05 12:24:24;;;;;;;13.57;5.35;;;16.90;70.20;;;;;;4773419;30;20055;-72
2023/05/05 12:26:50;;;;;;;10.90;4.60;;;16.90;70.30;;;;;;4770529;30;20414;-73
2023/05/05 12:29:27;;;;;;;10.07;4.22;;;16.90;70.40;;;;;;4767478;30;20135;-72
2023/05/05 12:31:53;;;;;;;6.10;4.40;;;16.90;70.30;;;;;;4758931;30;20537;-73
2023/05/05 12:34:27;;;;;;;8.05;4.22;;;16.90;70.40;;;;;;4772980;30;20055;-73
2023/05/05 12:36:53;;;;;;;7.85;4.53;;;16.90;70.30;;;;;;4772349;30;20464;-73
2023/05/05 12:39:19;;;;;;;7.03;4.00;;;16.90;70.30;;;;;;4772565;30;20048;-73
2023/05/05 12:41:45;;;;;;;10.15;4.70;;;16.90;70.20;;;;;;4772643;30;20404;-78
2023/05/05 12:44:11;;;;;;;15.82;5.47;;;16.90;70.30;;;;;;4772666;30;20056;-72
2023/05/05 12:46:47;;;;;;;17.73;4.90;;;16.90;70.90;;;;;;4772250;30;20055;-73
2023/05/05 12:49:13;;;;;;;14.07;4.40;;;17.00;70.80;;;;;;4773488;30;20047;-72
2023/05/05 12:51:52;;;;;;;22.92;6.68;;;17.00;70.80;;;;;;4771514;30;20113;-73
2023/05/05 12:54:18;;;;;;;23.95;6.15;;;17.00;70.90;;;;;;4755103;30;20384;-72
2023/05/05 12:56:45;;;;;;;23.75;6.07;;;16.90;70.90;;;;;;4758109;30;20047;-73
2023/05/05 12:59:27;;;;;;;22.67;6.22;;;16.90;71.70;;;;;;4755284;30;20149;-71
2023/05/05 13:01:54;;;;;;;22.35;6.53;;;16.90;71.10;;;;;;4755396;30;20133;-71
2023/05/05 13:04:25;;;;;;;16.77;5.53;;;16.90;71.20;;;;;;4755235;30;20059;-73
2023/05/05 13:07:13;;;;;;;21.20;5.25;;;16.90;71.20;;;;;;4754947;30;20417;-72
2023/05/05 13:09:39;;;;;;;20.55;5.25;;;16.90;71.40;;;;;;4754951;30;20082;-72
2023/05/05 13:12:07;;;;;;;14.80;5.03;;;16.90;71.20;;;;;;4754936;30;20149;-72
2023/05/05 13:14:33;;;;;;;16.17;5.68;;;16.90;71.20;;;;;;4755620;30;20052;-73
2023/05/05 13:16:59;;;;;;;16.52;6.00;;;16.90;71.10;;;;;;4755097;30;20063;-72
2023/05/05 13:19:26;;;;;;;9.77;5.20;;;16.90;71.10;;;;;;4754740;30;20047;-70
2023/05/05 13:21:54;;;;;;;7.22;5.43;;;16.90;71.20;;;;;;4754542;30;20063;-70
2023/05/05 13:24:20;;;;;;;9.98;5.85;;;16.90;71.20;;;;;;4768132;30;20140;-72
2023/05/05 13:26:46;;;;;;;10.93;4.85;;;16.80;71.20;;;;;;4762635;30;20075;-71
2023/05/05 13:29:12;;;;;;;12.13;5.50;;;16.80;71.40;;;;;;4772384;30;20070;-72
2023/05/05 13:31:37;;;;;;;11.70;5.47;;;16.80;71.80;;;;;;4768859;30;20047;-72
2023/05/05 13:34:03;;;;;;;16.40;5.07;;;16.80;72.20;;;;;;4755123;30;20106;-72
2023/05/05 13:36:30;;;;;;;10.98;4.75;;;16.80;72.50;;;;;;4772563;30;20056;-72
2023/05/05 13:38:55;;;;;;;14.18;4.88;;;16.80;72.60;;;;;;4772524;30;20416;-71
2023/05/05 13:41:21;;;;;;;10.65;5.03;;;16.80;72.70;;;;;;4772226;30;20148;-72
2023/05/05 13:43:47;;;;;;;23.52;5.18;;;16.80;72.80;;;;;;4770938;30;20125;-73
2023/05/05 13:46:13;;;;;;;16.92;4.85;;;16.90;72.80;;;;;;4772228;30;20113;-71
2023/05/05 13:48:39;;;;;;;19.55;5.70;;;16.90;72.80;;;;;;4771989;30;20048;-71
2023/05/05 13:51:05;;;;;;;19.20;5.47;;;16.90;72.60;;;;;;4772133;30;20065;-71
2023/05/05 13:53:31;;;;;;;15.43;5.65;;;17.00;72.20;;;;;;4772726;30;20120;-72
2023/05/05 13:55:58;;;;;;;15.32;5.95;;;17.00;72.00;;;;;;4772524;30;20064;-71
2023/05/05 13:58:24;;;;;;;11.60;4.93;;;17.00;71.90;;;;;;4772091;30;20361;-71
2023/05/05 14:00:51;;;;;;;12.75;4.90;;;16.90;72.00;;;;;;4772026;30;20083;-71
2023/05/05 14:03:17;;;;;;;16.08;5.30;;;16.90;72.20;;;;;;4753443;30;20048;-72
2023/05/05 14:05:44;;;;;;;9.18;5.03;;;16.90;72.30;;;;;;4763200;30;20446;-71
2023/05/05 14:08:11;;;;;;;10.13;4.88;;;16.90;72.50;;;;;;4772125;30;20387;-74
2023/05/05 14:10:39;;;;;;;13.45;4.97;;;16.90;72.60;;;;;;4756820;30;20415;-71
2023/05/05 14:13:05;;;;;;;11.52;4.60;;;16.90;72.60;;;;;;4754810;30;20091;-70
2023/05/05 14:15:31;;;;;;;10.75;4.68;;;16.90;72.90;;;;;;4753751;30;20093;-75
2023/05/05 14:17:58;;;;;;;14.25;4.13;;;16.90;73.00;;;;;;4754051;30;20064;-71
2023/05/05 14:20:25;;;;;;;10.13;4.50;;;16.90;73.20;;;;;;4754013;30;20089;-73
2023/05/05 14:22:51;;;;;;;11.82;4.30;;;16.90;73.70;;;;;;4762125;30;20051;-73
2023/05/05 14:25:17;;;;;;;12.93;3.85;;;16.90;73.60;;;;;;4756885;30;20087;-73
2023/05/05 14:27:43;;;;;;;11.50;4.20;;;16.90;74.20;;;;;;4750486;30;20139;-73
2023/05/05 14:30:09;;;;;;;8.95;3.70;;;17.00;74.70;;;;;;4754816;30;20207;-72
2023/05/05 14:32:34;;;;;;;12.23;3.70;;;17.00;74.40;;;;;;4754119;30;20044;-78
2023/05/05 14:35:00;;;;;;;10.30;3.90;;;17.00;74.60;;;;;;4738592;30;20484;-73
2023/05/05 14:37:26;;;;;;;11.98;3.75;;;17.00;75.10;;;;;;4754065;30;20056;-73
2023/05/05 14:39:52;;;;;;;9.55;3.45;;;17.00;75.60;;;;;;4751274;30;20049;-77
2023/05/05 14:42:17;;;;;;;7.50;3.30;;;17.00;75.90;;;;;;4736563;30;20390;-73
2023/05/05 14:44:43;;;;;;;11.30;3.45;;;17.00;75.70;;;;;;4742001;30;20049;-76
2023/05/05 14:47:09;;;;;;;7.43;2.80;;;17.00;75.50;;;;;;4737288;30;20049;-74
2023/05/05 14:49:34;;;;;;;9.73;3.50;;;17.00;75.40;;;;;;4737326;30;20365;-74
2023/05/05 14:52:00;;;;;;;7.57;3.35;;;17.00;75.10;;;;;;4750787;30;20052;-75
2023/05/05 14:54:26;;;;;;;7.93;2.53;;;17.00;75.10;;;;;;4753952;30;20060;-76
2023/05/05 14:56:51;;;;;;;9.30;2.53;;;17.00;74.90;;;;;;4752158;30;20084;-74
2023/05/05 14:59:17;;;;;;;11.57;4.88;;;17.00;75.00;;;;;;4752286;30;20346;-82
2023/05/05 15:01:43;;;;;;;10.07;5.03;;;17.00;74.80;;;;;;4723319;30;20468;-77
2023/05/05 15:04:09;;;;;;;11.27;5.00;;;17.00;74.70;;;;;;4751915;30;20364;-79
2023/05/05 15:06:37;;;;;;;10.20;4.65;;;17.00;74.50;;;;;;4736540;30;20071;-81
2023/05/05 15:09:02;;;;;;;9.82;5.07;;;17.00;74.30;;;;;;4720552;30;20191;-81
2023/05/05 15:11:28;;;;;;;13.77;5.57;;;17.00;74.30;;;;;;4738701;30;20089;-81
2023/05/05 15:13:54;;;;;;;16.85;5.30;;;17.00;74.40;;;;;;4754692;30;20044;-81
2023/05/05 15:16:20;;;;;;;8.02;5.05;;;16.90;74.50;;;;;;4717395;30;20125;-80
2023/05/05 15:18:45;;;;;;;11.50;4.28;;;16.90;74.60;;;;;;4738271;30;20049;-77
2023/05/05 15:21:11;;;;;;;13.90;4.80;;;17.00;75.00;;;;;;4738895;30;20059;-74
2023/05/05 15:23:37;;;;;;;12.18;5.15;;;17.00;75.20;;;;;;4753658;30;20051;-77
2023/05/05 15:26:03;;;;;;;15.00;4.95;;;17.00;75.60;;;;;;4740344;30;20525;-76
2023/05/05 15:28:29;;;;;;;20.95;5.65;;;17.00;76.00;;;;;;4735380;30;20071;-77
2023/05/05 15:30:54;;;;;;;27.23;6.50;;;17.00;76.40;;;;;;4756651;30;20052;-75
2023/05/05 15:33:20;;;;;;;28.08;5.57;;;17.00;76.90;;;;;;4767226;30;20059;-76
2023/05/05 15:35:46;;;;;;;16.55;5.38;;;17.00;76.90;;;;;;4774631;30;20055;-76
2023/05/05 15:38:11;;;;;;;29.02;6.90;;;17.00;77.20;;;;;;4766688;30;20048;-76
2023/05/05 15:40:37;;;;;;;26.08;5.38;;;17.00;77.30;;;;;;4756695;30;20168;-76
2023/05/05 15:43:03;;;;;;;45.35;7.55;;;17.00;77.40;;;;;;4757947;30;20052;-74
2023/05/05 15:45:28;;;;;;;28.77;5.47;;;17.00;77.60;;;;;;4756270;30;20059;-76
2023/05/05 15:47:54;;;;;;;32.25;6.57;;;17.00;77.70;;;;;;4740705;30;20391;-75
2023/05/05 15:50:20;;;;;;;43.10;6.75;;;17.00;77.60;;;;;;4756104;30;20452;-74
2023/05/05 15:52:46;;;;;;;44.78;6.85;;;17.00;77.70;;;;;;4755956;30;20069;-78
2023/05/05 15:55:12;;;;;;;42.10;6.93;;;17.00;77.90;;;;;;4764380;30;20087;-75
2023/05/05 15:57:40;;;;;;;39.17;5.82;;;17.00;77.90;;;;;;4743008;30;20056;-73
2023/05/05 16:00:08;;;;;;;34.95;5.72;;;17.00;78.40;;;;;;4756033;30;20063;-74
2023/05/05 16:02:33;;;;;;;36.13;6.07;;;17.00;77.90;;;;;;4745064;30;20051;-74
2023/05/05 16:04:59;;;;;;;33.08;6.50;;;17.00;77.80;;;;;;4765661;30;20060;-73
2023/05/05 16:07:25;;;;;;;32.22;6.35;;;17.10;77.80;;;;;;4756000;30;20495;-76
2023/05/05 16:09:51;;;;;;;40.60;5.45;;;17.10;77.70;;;;;;4758454;30;20071;-77
2023/05/05 20:39:15;;;;;;;3.33;1.98;;;16.90;72.50;;;;;;5089082;24;20161;-71
2023/05/05 20:41:41;;;;;;;10.25;3.90;;;16.90;72.30;;;;;;4796021;29;20058;-74
2023/05/05 20:44:09;;;;;;;6.68;4.10;;;16.80;72.10;;;;;;4791029;29;20065;-73
2023/05/05 20:46:34;;;;;;;7.93;4.82;;;16.80;72.20;;;;;;4791930;29;20478;-73
2023/05/05 20:49:00;;;;;;;9.45;5.28;;;16.70;72.30;;;;;;4791866;29;20047;-73
2023/05/05 20:51:30;;;;;;;11.43;5.60;;;16.70;72.50;;;;;;4790847;30;20091;-73
2023/05/05 20:53:56;;;;;;;9.70;5.68;;;16.60;72.70;;;;;;4795408;29;20062;-72
2023/05/05 20:56:22;;;;;;;8.98;6.15;;;16.60;72.90;;;;;;4806169;29;20106;-72
2023/05/05 20:58:47;;;;;;;8.40;6.03;;;16.60;73.00;;;;;;4797020;29;20096;-75
2023/05/05 21:01:13;;;;;;;10.30;6.13;;;16.60;73.10;;;;;;4809095;29;20053;-74
2023/05/05 21:03:40;;;;;;;9.02;5.75;;;16.50;73.30;;;;;;4808478;29;20054;-73
2023/05/05 21:06:06;;;;;;;6.40;5.03;;;16.60;73.30;;;;;;4808759;29;20124;-74
2023/05/05 21:08:31;;;;;;;13.98;6.43;;;16.60;73.30;;;;;;4808809;29;20127;-73
2023/05/05 21:10:57;;;;;;;14.93;5.80;;;16.60;73.20;;;;;;4808058;29;20074;-73
2023/05/05 21:13:23;;;;;;;9.52;5.53;;;16.60;73.10;;;;;;4808591;29;20142;-73
2023/05/05 21:15:49;;;;;;;9.68;5.72;;;16.60;73.00;;;;;;4808511;29;20046;-73
2023/05/05 21:18:14;;;;;;;10.25;5.40;;;16.50;72.90;;;;;;4809058;29;20061;-73
2023/05/05 21:20:40;;;;;;;8.75;5.63;;;16.50;72.90;;;;;;4802040;29;20082;-73
2023/05/05 21:23:06;;;;;;;6.65;5.15;;;16.50;72.90;;;;;;4790467;30;20059;-73
2023/05/05 21:25:31;;;;;;;8.50;5.00;;;16.50;72.90;;;;;;4790645;29;20047;-73
2023/05/05 21:27:57;;;;;;;8.52;4.95;;;16.50;72.90;;;;;;4790331;30;20043;-73
2023/05/05 21:30:23;;;;;;;9.88;6.05;;;16.40;72.80;;;;;;4793189;29;20070;-73
2023/05/05 21:32:50;;;;;;;7.43;4.95;;;16.40;72.90;;;;;;4790362;29;20038;-72
2023/05/05 21:35:15;;;;;;;12.32;6.25;;;16.40;72.90;;;;;;4790774;30;20066;-74
2023/05/05 21:37:41;;;;;;;9.52;4.95;;;16.40;72.80;;;;;;4790467;30;20054;-71
